LNI781 WAFF-WAAA
Flight info
| Callsign | LNI781 |
|---|---|
| Flight time | N/A |
| Altitude | 31000 |
| Route | NIVEK |
| Aircraft | B738/M-SDE2E3FGHIRWXY/LB1 |
Departure
| Time | 2026-05-01 08:14 |
|---|---|
| Airport | Mutiara - SIS Al-Jufrie Airport (WAFF) |
Arrival
| Time | N/A |
|---|---|
| Airport | Sultan Hasanuddin International Airport (WAAA) |
| Time | Latitude | Longitude | Altitude | Speed | Heading |
|---|---|---|---|---|---|
| 2026-05-01 08:01 | -0.91768 | 119.90682 | 234 ft | 0 kts | 247° |
| 2026-05-01 08:03 | -0.91748 | 119.90718 | 239 ft | 3 kts | 213° |
| 2026-05-01 08:04 | -0.91714 | 119.90715 | 241 ft | 1 kts | 155° |
| 2026-05-01 08:04 | -0.91712 | 119.90714 | 240 ft | 0 kts | 155° |
| 2026-05-01 08:08 | -0.91730 | 119.90723 | 239 ft | 4 kts | 155° |
| 2026-05-01 08:09 | -0.91806 | 119.90757 | 242 ft | 8 kts | 155° |
| 2026-05-01 08:09 | -0.91863 | 119.90782 | 243 ft | 10 kts | 156° |
| 2026-05-01 08:09 | -0.91921 | 119.90822 | 239 ft | 11 kts | 104° |
| 2026-05-01 08:10 | -0.91901 | 119.90870 | 240 ft | 4 kts | 59° |
| 2026-05-01 08:10 | -0.91880 | 119.90915 | 240 ft | 4 kts | 67° |
| 2026-05-01 08:11 | -0.91867 | 119.90970 | 237 ft | 5 kts | 112° |
| 2026-05-01 08:11 | -0.91989 | 119.91023 | 242 ft | 18 kts | 159° |
| 2026-05-01 08:12 | -0.92250 | 119.91144 | 236 ft | 23 kts | 156° |
| 2026-05-01 08:12 | -0.92400 | 119.91212 | 235 ft | 24 kts | 155° |
| 2026-05-01 08:12 | -0.92658 | 119.91338 | 239 ft | 13 kts | 136° |
| 2026-05-01 08:13 | -0.92701 | 119.91371 | 240 ft | 1 kts | 186° |
| 2026-05-01 08:13 | -0.92706 | 119.91360 | 240 ft | 2 kts | 246° |
| 2026-05-01 08:13 | -0.92669 | 119.91334 | 241 ft | 6 kts | 335° |
| 2026-05-01 08:14 | -0.92539 | 119.91275 | 238 ft | 51 kts | 336° |
| 2026-05-01 08:14 | -0.91983 | 119.91024 | 243 ft | 122 kts | 336° |
| 2026-05-01 08:14 | -0.91022 | 119.90581 | 297 ft | 176 kts | 334° |
| 2026-05-01 08:14 | -0.89879 | 119.90046 | 949 ft | 183 kts | 335° |
| 2026-05-01 08:15 | -0.88764 | 119.89534 | 2039 ft | 169 kts | 335° |
| 2026-05-01 08:15 | -0.86377 | 119.88440 | 2966 ft | 217 kts | 334° |
| 2026-05-01 08:15 | -0.84924 | 119.87770 | 3207 ft | 242 kts | 334° |
| 2026-05-01 08:16 | -0.83313 | 119.87027 | 3494 ft | 265 kts | 334° |
| 2026-05-01 08:16 | -0.81613 | 119.86241 | 4240 ft | 271 kts | 334° |
| 2026-05-01 08:16 | -0.79897 | 119.85448 | 5156 ft | 273 kts | 334° |
| 2026-05-01 08:16 | -0.78161 | 119.84645 | 5986 ft | 278 kts | 334° |
| 2026-05-01 08:17 | -0.76391 | 119.83824 | 6735 ft | 283 kts | 334° |
| 2026-05-01 08:17 | -0.74587 | 119.82988 | 7503 ft | 287 kts | 334° |
| 2026-05-01 08:17 | -0.72786 | 119.82153 | 8244 ft | 292 kts | 335° |
| 2026-05-01 08:17 | -0.70975 | 119.81210 | 8997 ft | 296 kts | 322° |
| 2026-05-01 08:18 | -0.69664 | 119.79634 | 9747 ft | 299 kts | 294° |
| 2026-05-01 08:18 | -0.69564 | 119.75481 | 10563 ft | 327 kts | 246° |
| 2026-05-01 08:19 | -0.72751 | 119.72109 | 11348 ft | 349 kts | 204° |
| 2026-05-01 08:19 | -0.75101 | 119.71537 | 12003 ft | 350 kts | 180° |
| 2026-05-01 08:19 | -0.77474 | 119.72017 | 12648 ft | 352 kts | 153° |
| 2026-05-01 08:19 | -0.79391 | 119.73522 | 13273 ft | 355 kts | 127° |
| 2026-05-01 08:20 | -0.80678 | 119.75626 | 13894 ft | 357 kts | 116° |
| 2026-05-01 08:20 | -0.81794 | 119.77860 | 14442 ft | 362 kts | 116° |
| 2026-05-01 08:20 | -0.82978 | 119.80088 | 15014 ft | 365 kts | 118° |
| 2026-05-01 08:20 | -0.84245 | 119.82306 | 15586 ft | 368 kts | 120° |
| 2026-05-01 08:21 | -0.85748 | 119.84372 | 16134 ft | 372 kts | 136° |
| 2026-05-01 08:21 | -0.87908 | 119.85817 | 16697 ft | 376 kts | 156° |
| 2026-05-01 08:21 | -0.90454 | 119.86429 | 17251 ft | 381 kts | 176° |
| 2026-05-01 08:21 | -0.93094 | 119.86126 | 17788 ft | 387 kts | 196° |
| 2026-05-01 08:22 | -0.95525 | 119.84955 | 18278 ft | 392 kts | 211° |
| 2026-05-01 08:22 | -0.97823 | 119.83463 | 18732 ft | 395 kts | 213° |
| 2026-05-01 08:22 | -1.00108 | 119.81915 | 19164 ft | 399 kts | 213° |
| 2026-05-01 08:22 | -1.02406 | 119.80341 | 19616 ft | 402 kts | 213° |
| 2026-05-01 08:23 | -1.04723 | 119.78761 | 20080 ft | 404 kts | 213° |
| 2026-05-01 08:23 | -1.07058 | 119.77179 | 20509 ft | 407 kts | 213° |
| 2026-05-01 08:23 | -1.09417 | 119.75593 | 20932 ft | 410 kts | 213° |
| 2026-05-01 08:23 | -1.11765 | 119.74022 | 21338 ft | 413 kts | 213° |
| 2026-05-01 08:24 | -1.14198 | 119.72401 | 21751 ft | 416 kts | 212° |
| 2026-05-01 08:24 | -1.16578 | 119.70817 | 22167 ft | 418 kts | 212° |
| 2026-05-01 08:24 | -1.19008 | 119.69202 | 22577 ft | 421 kts | 212° |
| 2026-05-01 08:24 | -1.21458 | 119.67574 | 22966 ft | 424 kts | 212° |
| 2026-05-01 08:25 | -1.23918 | 119.65939 | 23349 ft | 427 kts | 212° |
| 2026-05-01 08:25 | -1.26401 | 119.64289 | 23682 ft | 429 kts | 212° |
| 2026-05-01 08:25 | -1.28893 | 119.62632 | 24004 ft | 431 kts | 212° |
| 2026-05-01 08:25 | -1.31392 | 119.60971 | 24339 ft | 433 kts | 212° |
| 2026-05-01 08:26 | -1.33906 | 119.59300 | 24674 ft | 435 kts | 212° |
| 2026-05-01 08:26 | -1.36433 | 119.57620 | 24969 ft | 437 kts | 212° |
| 2026-05-01 08:26 | -1.38968 | 119.55935 | 25288 ft | 439 kts | 212° |
| 2026-05-01 08:26 | -1.41515 | 119.54241 | 25599 ft | 441 kts | 212° |
| 2026-05-01 08:27 | -1.44073 | 119.52541 | 25899 ft | 443 kts | 212° |
| 2026-05-01 08:27 | -1.46648 | 119.50829 | 26199 ft | 445 kts | 212° |
| 2026-05-01 08:27 | -1.49228 | 119.49113 | 26494 ft | 447 kts | 212° |
| 2026-05-01 08:27 | -1.51824 | 119.47387 | 26787 ft | 449 kts | 212° |
| 2026-05-01 08:28 | -1.54424 | 119.45658 | 27068 ft | 451 kts | 212° |
| 2026-05-01 08:28 | -1.57039 | 119.43919 | 27347 ft | 453 kts | 212° |
| 2026-05-01 08:28 | -1.59668 | 119.42171 | 27618 ft | 455 kts | 212° |
| 2026-05-01 08:28 | -1.62308 | 119.40416 | 27887 ft | 457 kts | 212° |
| 2026-05-01 08:29 | -1.64956 | 119.38654 | 28160 ft | 458 kts | 212° |
| 2026-05-01 08:29 | -1.67615 | 119.36886 | 28425 ft | 460 kts | 212° |
| 2026-05-01 08:29 | -1.70285 | 119.35110 | 28682 ft | 462 kts | 212° |
| 2026-05-01 08:29 | -1.72962 | 119.33330 | 28929 ft | 464 kts | 212° |
| 2026-05-01 08:30 | -1.75653 | 119.31540 | 29174 ft | 465 kts | 212° |
| 2026-05-01 08:30 | -1.78348 | 119.29747 | 29413 ft | 467 kts | 212° |
| 2026-05-01 08:30 | -1.81058 | 119.27945 | 29721 ft | 467 kts | 212° |
| 2026-05-01 08:30 | -1.83754 | 119.26151 | 30074 ft | 465 kts | 212° |
| 2026-05-01 08:31 | -1.86439 | 119.24364 | 30419 ft | 463 kts | 212° |
| 2026-05-01 08:31 | -1.89119 | 119.22581 | 30721 ft | 462 kts | 212° |
| 2026-05-01 08:31 | -1.91796 | 119.20800 | 30859 ft | 464 kts | 212° |
| 2026-05-01 08:32 | -1.97178 | 119.17220 | 30852 ft | 463 kts | 212° |
| 2026-05-01 08:32 | -2.02525 | 119.13662 | 30858 ft | 461 kts | 212° |
| 2026-05-01 08:33 | -2.07859 | 119.10113 | 30856 ft | 460 kts | 212° |
| 2026-05-01 08:33 | -2.13187 | 119.06567 | 30856 ft | 460 kts | 212° |
| 2026-05-01 08:34 | -2.18484 | 119.03042 | 30855 ft | 461 kts | 212° |
| 2026-05-01 08:34 | -2.23768 | 118.99525 | 30855 ft | 461 kts | 212° |
| 2026-05-01 08:35 | -2.29100 | 118.95976 | 30852 ft | 461 kts | 212° |
| 2026-05-01 08:35 | -2.34438 | 118.92422 | 30851 ft | 461 kts | 212° |
| 2026-05-01 08:36 | -2.39773 | 118.88870 | 30854 ft | 461 kts | 212° |
| 2026-05-01 08:36 | -2.45118 | 118.85311 | 30855 ft | 462 kts | 212° |
| 2026-05-01 08:37 | -2.50466 | 118.81749 | 30856 ft | 462 kts | 212° |
| 2026-05-01 08:37 | -2.55816 | 118.78185 | 30855 ft | 462 kts | 212° |
| 2026-05-01 08:38 | -2.61175 | 118.74616 | 30857 ft | 463 kts | 212° |
| 2026-05-01 08:38 | -2.63923 | 118.72957 | 30836 ft | 461 kts | 201° |
| 2026-05-01 08:38 | -2.66990 | 118.72106 | 30873 ft | 457 kts | 186° |
| 2026-05-01 08:38 | -2.70152 | 118.72092 | 30857 ft | 454 kts | 170° |
| 2026-05-01 08:39 | -2.73227 | 118.72748 | 30873 ft | 452 kts | 165° |
| 2026-05-01 08:39 | -2.79322 | 118.74347 | 30860 ft | 453 kts | 163° |
| 2026-05-01 08:40 | -2.88475 | 118.76747 | 30864 ft | 453 kts | 164° |
| 2026-05-01 08:40 | -2.94579 | 118.78289 | 30860 ft | 449 kts | 165° |
| 2026-05-01 08:41 | -3.00559 | 118.79784 | 30862 ft | 440 kts | 165° |
| 2026-05-01 08:41 | -3.06509 | 118.81274 | 30688 ft | 443 kts | 165° |
| 2026-05-01 08:42 | -3.09494 | 118.82022 | 30323 ft | 439 kts | 164° |
| 2026-05-01 08:42 | -3.12444 | 118.82761 | 29891 ft | 435 kts | 164° |
| 2026-05-01 08:42 | -3.15369 | 118.83494 | 29389 ft | 432 kts | 164° |
| 2026-05-01 08:42 | -3.18273 | 118.84222 | 28899 ft | 428 kts | 164° |
| 2026-05-01 08:43 | -3.21152 | 118.84944 | 28421 ft | 425 kts | 164° |
| 2026-05-01 08:43 | -3.24004 | 118.85659 | 27962 ft | 421 kts | 164° |
| 2026-05-01 08:43 | -3.26835 | 118.86369 | 27496 ft | 418 kts | 164° |
| 2026-05-01 08:43 | -3.29647 | 118.87075 | 27035 ft | 415 kts | 164° |
| 2026-05-01 08:44 | -3.32435 | 118.87774 | 26584 ft | 412 kts | 164° |
| 2026-05-01 08:44 | -3.35165 | 118.88457 | 26147 ft | 408 kts | 164° |
| 2026-05-01 08:44 | -3.37917 | 118.89148 | 25686 ft | 407 kts | 164° |